Time;durP1;ratioP1;P1;durP2;ratioP2;P2;SDS_P1;SDS_P2;PMS_P1;PMS_P2;Temp;Humidity;BMP_temperature;BMP_pressure;BME280_temperature;BME280_humidity;BME280_pressure;Samples;Min_cycle;Max_cycle;Signal;HPM_P1;HPM_P2
2021/06/08 00:01:40;;;;;;;1.77;1.67;;;23.90;59.00;;;;;;5053052;28;20124;-43
2021/06/08 00:04:06;;;;;;;1.60;1.48;;;23.80;58.50;;;;;;5057078;28;20036;-41
2021/06/08 00:06:32;;;;;;;1.60;1.50;;;23.80;58.50;;;;;;5054951;28;20017;-42
2021/06/08 00:08:58;;;;;;;1.45;1.35;;;23.80;58.40;;;;;;5053907;28;20025;-43
2021/06/08 00:11:23;;;;;;;2.65;1.55;;;23.80;58.50;;;;;;5052789;28;20021;-43
2021/06/08 00:13:49;;;;;;;1.60;1.50;;;23.80;58.50;;;;;;5051376;28;20037;-42
2021/06/08 00:16:15;;;;;;;1.55;1.45;;;23.70;58.40;;;;;;5052502;28;20048;-43
2021/06/08 00:18:41;;;;;;;1.60;1.50;;;23.70;59.10;;;;;;5055785;28;20035;-41
2021/06/08 00:21:06;;;;;;;1.85;1.48;;;23.70;58.40;;;;;;5070748;28;20029;-43
2021/06/08 00:23:32;;;;;;;1.70;1.60;;;23.70;58.80;;;;;;5051177;28;20024;-43
2021/06/08 00:25:58;;;;;;;1.70;1.60;;;23.70;58.20;;;;;;5050369;28;20029;-44
2021/06/08 00:28:23;;;;;;;1.92;1.83;;;23.80;58.30;;;;;;5056874;28;20475;-43
2021/06/08 00:30:49;;;;;;;1.77;1.67;;;23.80;58.20;;;;;;5053285;28;20083;-43
2021/06/08 00:33:14;;;;;;;1.50;1.40;;;23.80;57.90;;;;;;5053377;28;20522;-43
2021/06/08 00:35:40;;;;;;;1.63;1.52;;;23.70;57.90;;;;;;5054358;28;20035;-43
2021/06/08 00:38:05;;;;;;;1.80;1.70;;;23.70;58.10;;;;;;5048706;28;20096;-43
2021/06/08 00:40:31;;;;;;;1.55;1.45;;;23.70;58.20;;;;;;5054540;28;20483;-44
2021/06/08 00:42:57;;;;;;;2.10;1.90;;;23.70;58.80;;;;;;5054293;28;20025;-43
2021/06/08 00:45:22;;;;;;;1.65;1.55;;;23.80;58.10;;;;;;5054032;28;20427;-43
2021/06/08 00:47:49;;;;;;;1.75;1.65;;;23.60;58.30;;;;;;5053228;28;20031;-42
2021/06/08 00:50:14;;;;;;;1.65;1.50;;;23.60;58.20;;;;;;5049833;28;20073;-42
2021/06/08 00:52:40;;;;;;;1.85;1.70;;;23.70;58.20;;;;;;5052279;28;20021;-43
2021/06/08 00:55:07;;;;;;;1.60;1.50;;;23.70;58.10;;;;;;5052020;28;20111;-43
2021/06/08 00:57:33;;;;;;;1.60;1.50;;;23.60;58.30;;;;;;5050499;28;20025;-41
2021/06/08 00:59:59;;;;;;;2.42;1.67;;;23.50;58.40;;;;;;5055114;28;20143;-41
2021/06/08 01:02:24;;;;;;;1.40;1.30;;;23.60;58.70;;;;;;5052269;28;20552;-43
2021/06/08 01:04:50;;;;;;;1.77;1.48;;;23.60;58.00;;;;;;5051444;28;20032;-42
2021/06/08 01:07:15;;;;;;;1.52;1.42;;;23.70;57.80;;;;;;5056350;28;20495;-43
2021/06/08 01:09:41;;;;;;;1.80;1.70;;;23.70;58.00;;;;;;5051974;28;20082;-43
2021/06/08 01:12:07;;;;;;;1.25;1.23;;;23.60;58.10;;;;;;5052942;28;20021;-42
2021/06/08 01:14:33;;;;;;;1.75;1.65;;;23.60;58.10;;;;;;5052512;28;20029;-43
2021/06/08 01:16:58;;;;;;;2.47;2.08;;;23.60;58.10;;;;;;5048596;28;20029;-40
2021/06/08 01:19:24;;;;;;;1.50;1.40;;;23.40;58.30;;;;;;5056370;28;20025;-42
2021/06/08 01:21:49;;;;;;;1.77;1.67;;;23.40;58.40;;;;;;5052337;28;20021;-41
2021/06/08 01:24:15;;;;;;;1.95;1.85;;;23.50;58.40;;;;;;5052428;28;20032;-42
2021/06/08 01:26:40;;;;;;;1.63;1.50;;;23.60;58.10;;;;;;5052637;28;20110;-42
2021/06/08 01:29:06;;;;;;;1.65;1.55;;;23.60;58.20;;;;;;5048290;28;20118;-40
2021/06/08 01:31:34;;;;;;;1.80;1.70;;;23.50;58.20;;;;;;5036189;28;20029;-45
2021/06/08 01:34:00;;;;;;;1.38;1.30;;;23.50;58.20;;;;;;5055024;28;20441;-42
2021/06/08 01:36:27;;;;;;;1.70;1.58;;;23.40;58.30;;;;;;5052571;28;20479;-42
2021/06/08 01:38:53;;;;;;;1.63;1.52;;;23.30;58.40;;;;;;5049559;28;20458;-42
2021/06/08 01:41:27;;;;;;;1.60;1.50;;;23.30;58.60;;;;;;5049757;28;20564;-43
2021/06/08 01:43:53;;;;;;;1.85;1.75;;;23.30;58.50;;;;;;5048897;28;20071;-41
2021/06/08 01:46:20;;;;;;;1.42;1.33;;;23.40;58.50;;;;;;5055478;28;20032;-42
2021/06/08 01:48:46;;;;;;;1.70;1.60;;;23.40;58.50;;;;;;5052330;28;20079;-42
2021/06/08 01:51:27;;;;;;;1.60;1.50;;;23.30;58.60;;;;;;5052054;28;20430;-40
2021/06/08 01:53:57;;;;;;;1.40;1.30;;;23.30;58.50;;;;;;5053105;28;20431;-42
2021/06/08 01:56:23;;;;;;;2.20;1.45;;;23.30;58.30;;;;;;5050292;28;20108;-42
2021/06/08 01:59:14;;;;;;;1.30;1.30;;;23.30;58.40;;;;;;5032340;28;20021;-42
2021/06/08 02:01:57;;;;;;;1.98;1.88;;;23.30;58.50;;;;;;5063617;28;20051;-40
2021/06/08 02:04:25;;;;;;;1.50;1.40;;;23.30;58.40;;;;;;5056105;28;20491;-40
2021/06/08 02:07:32;;;;;;;1.85;1.70;;;23.20;58.40;;;;;;5050537;28;20439;-42
2021/06/08 02:10:22;;;;;;;1.88;1.77;;;23.30;58.30;;;;;;5052825;28;20037;-42
2021/06/08 02:12:51;;;;;;;1.85;1.75;;;23.20;58.60;;;;;;5052063;28;20082;-42
2021/06/08 02:15:17;;;;;;;1.80;1.70;;;23.20;58.40;;;;;;5051854;28;20041;-43
2021/06/08 02:17:50;;;;;;;1.70;1.60;;;23.10;58.60;;;;;;5052397;28;20027;-42
2021/06/08 02:20:21;;;;;;;2.10;2.00;;;23.20;58.40;;;;;;5049446;28;20108;-42
2021/06/08 02:22:53;;;;;;;2.22;2.13;;;23.20;58.30;;;;;;5036691;28;20493;-42
2021/06/08 02:25:19;;;;;;;1.90;1.80;;;23.20;58.00;;;;;;5025235;28;20396;-42
2021/06/08 02:27:45;;;;;;;2.28;2.00;;;23.20;58.10;;;;;;5054672;28;20033;-44
2021/06/08 02:30:13;;;;;;;1.90;1.80;;;23.20;58.10;;;;;;5054325;28;20032;-42
2021/06/08 02:32:39;;;;;;;1.92;1.73;;;23.20;58.10;;;;;;5054305;28;20024;-42
2021/06/08 02:35:05;;;;;;;1.80;1.70;;;23.30;58.00;;;;;;5051641;28;20175;-41
2021/06/08 02:37:30;;;;;;;1.40;1.40;;;23.20;58.20;;;;;;5057476;28;20531;-43
2021/06/08 02:39:56;;;;;;;1.80;1.70;;;23.10;58.40;;;;;;5055039;28;20100;-42
2021/06/08 02:42:22;;;;;;;1.80;1.70;;;23.00;58.30;;;;;;5055731;28;20364;-42
2021/06/08 02:44:48;;;;;;;1.73;1.63;;;23.10;58.30;;;;;;5054244;28;20033;-42
2021/06/08 02:47:13;;;;;;;1.65;1.55;;;23.20;58.10;;;;;;5052997;28;20013;-40
2021/06/08 02:49:39;;;;;;;1.83;1.73;;;23.20;57.90;;;;;;5037848;28;20040;-42
2021/06/08 02:52:05;;;;;;;1.77;1.67;;;23.20;58.10;;;;;;5034528;28;20104;-42
2021/06/08 02:54:31;;;;;;;1.90;1.80;;;23.20;58.60;;;;;;5070412;28;20403;-41
2021/06/08 02:56:57;;;;;;;1.88;1.60;;;23.20;57.80;;;;;;5055379;28;20029;-42
2021/06/08 02:59:22;;;;;;;1.52;1.50;;;23.20;57.90;;;;;;5054371;28;20036;-40
2021/06/08 03:01:51;;;;;;;1.80;1.70;;;23.20;57.90;;;;;;5053089;28;20085;-42
2021/06/08 03:04:19;;;;;;;1.77;1.67;;;23.10;58.00;;;;;;5056712;28;20024;-42
2021/06/08 03:06:51;;;;;;;1.83;1.70;;;23.00;58.00;;;;;;5053642;28;20057;-44
2021/06/08 03:09:17;;;;;;;1.70;1.60;;;23.00;58.40;;;;;;5055091;28;20462;-41
2021/06/08 03:11:50;;;;;;;1.60;1.50;;;23.00;58.00;;;;;;5055318;28;20044;-42
2021/06/08 03:14:16;;;;;;;1.75;1.65;;;23.10;57.80;;;;;;5052897;28;20116;-42
2021/06/08 03:16:56;;;;;;;1.70;1.60;;;23.10;57.80;;;;;;5054614;28;20060;-42
2021/06/08 03:19:22;;;;;;;1.80;1.70;;;23.10;57.90;;;;;;5052449;28;20021;-43
2021/06/08 03:21:52;;;;;;;1.70;1.60;;;23.10;57.70;;;;;;5055696;28;20033;-41
2021/06/08 03:24:19;;;;;;;1.90;1.80;;;23.00;58.00;;;;;;5053626;28;20021;-41
2021/06/08 03:26:45;;;;;;;1.70;1.60;;;23.00;57.90;;;;;;5053479;28;20078;-42
2021/06/08 03:29:11;;;;;;;1.73;1.63;;;23.00;57.60;;;;;;5051039;28;20044;-40
2021/06/08 03:31:38;;;;;;;1.80;1.70;;;23.10;57.50;;;;;;5037349;28;20017;-42
2021/06/08 03:34:04;;;;;;;1.10;1.10;;;23.20;57.30;;;;;;5032544;28;20036;-42
2021/06/08 03:36:29;;;;;;;1.40;1.40;;;23.10;57.60;;;;;;5055385;28;20112;-42
2021/06/08 03:38:55;;;;;;;1.63;1.52;;;23.10;57.80;;;;;;5053329;28;20064;-41
2021/06/08 03:41:21;;;;;;;1.90;1.80;;;23.10;57.50;;;;;;5050077;28;20074;-42
2021/06/08 03:43:47;;;;;;;1.60;1.50;;;23.10;57.40;;;;;;5035155;28;20032;-42
2021/06/08 03:46:12;;;;;;;1.40;1.30;;;23.00;57.50;;;;;;5056549;28;20510;-41
2021/06/08 03:48:38;;;;;;;1.67;1.58;;;23.00;57.80;;;;;;5053855;28;20033;-42
2021/06/08 03:51:04;;;;;;;1.85;1.60;;;22.90;57.70;;;;;;5054386;28;20025;-42
2021/06/08 03:53:29;;;;;;;1.63;1.52;;;23.00;57.90;;;;;;5053009;28;20029;-42
2021/06/08 03:55:55;;;;;;;1.77;1.48;;;22.90;57.80;;;;;;5050290;28;20029;-42
2021/06/08 03:58:21;;;;;;;1.85;1.75;;;22.90;57.90;;;;;;5057485;28;20028;-43
2021/06/08 04:00:47;;;;;;;1.90;1.80;;;23.00;57.50;;;;;;5056090;28;20045;-40
2021/06/08 04:03:14;;;;;;;1.60;1.50;;;23.10;57.50;;;;;;5053900;28;20036;-40
2021/06/08 04:05:40;;;;;;;1.77;1.70;;;23.00;57.40;;;;;;5053990;28;20035;-42
2021/06/08 04:08:06;;;;;;;2.10;1.90;;;23.00;57.40;;;;;;5050794;28;20407;-43
2021/06/08 04:10:31;;;;;;;1.80;1.70;;;23.00;57.40;;;;;;5055727;28;20021;-42
2021/06/08 04:13:00;;;;;;;1.65;1.52;;;23.10;57.20;;;;;;5054547;28;20062;-40
2021/06/08 04:15:26;;;;;;;1.70;1.60;;;23.00;57.20;;;;;;5053486;28;20037;-40
2021/06/08 04:17:53;;;;;;;1.58;1.58;;;22.90;57.50;;;;;;5055779;28;20029;-42
2021/06/08 04:20:18;;;;;;;1.65;1.55;;;22.90;57.50;;;;;;5050795;28;20043;-42
2021/06/08 04:22:46;;;;;;;1.45;1.35;;;22.90;57.60;;;;;;5035134;28;20029;-41
2021/06/08 04:25:12;;;;;;;1.50;1.40;;;23.00;57.00;;;;;;5055710;28;20032;-41
2021/06/08 04:27:38;;;;;;;1.60;1.50;;;23.00;57.10;;;;;;5053563;28;20028;-42
2021/06/08 04:30:07;;;;;;;1.75;1.65;;;23.10;57.10;;;;;;5055545;28;20025;-41
2021/06/08 04:32:33;;;;;;;1.70;1.60;;;23.20;56.50;;;;;;5053275;28;20099;-42
2021/06/08 04:34:59;;;;;;;1.80;1.70;;;23.20;56.60;;;;;;5050894;28;20112;-43
2021/06/08 04:37:24;;;;;;;1.60;1.50;;;23.30;56.30;;;;;;5056642;28;20025;-41
2021/06/08 04:39:50;;;;;;;1.70;1.60;;;23.30;56.20;;;;;;5054467;28;20456;-39
2021/06/08 04:42:16;;;;;;;1.98;1.88;;;23.30;56.20;;;;;;5055105;28;20025;-42
2021/06/08 04:44:43;;;;;;;2.33;1.92;;;23.30;56.10;;;;;;5052692;28;20482;-42
2021/06/08 04:47:09;;;;;;;2.42;1.77;;;23.30;56.00;;;;;;5050492;28;20086;-41
2021/06/08 04:49:34;;;;;;;1.77;1.40;;;23.30;56.30;;;;;;5055488;28;20035;-41
2021/06/08 04:52:00;;;;;;;2.00;1.80;;;23.30;57.40;;;;;;5058176;28;20025;-38
2021/06/08 04:54:25;;;;;;;1.90;1.80;;;23.30;56.60;;;;;;5053486;28;20529;-43
2021/06/08 04:56:51;;;;;;;1.77;1.67;;;23.30;57.00;;;;;;5053145;28;20105;-42
2021/06/08 04:59:21;;;;;;;2.20;1.98;;;23.20;57.50;;;;;;5046990;28;20816;-42
2021/06/08 05:01:46;;;;;;;2.53;2.03;;;23.10;57.50;;;;;;5029807;28;20564;-43
2021/06/08 05:04:13;;;;;;;2.05;1.95;;;23.30;57.00;;;;;;5045093;28;20033;-42
2021/06/08 05:06:41;;;;;;;2.17;2.08;;;23.20;57.30;;;;;;5014587;28;20112;-42
2021/06/08 05:09:11;;;;;;;2.15;2.05;;;23.20;57.30;;;;;;4995237;28;20051;-43
2021/06/08 05:11:38;;;;;;;2.00;1.90;;;23.20;56.90;;;;;;5027698;28;20029;-42
2021/06/08 05:14:05;;;;;;;2.92;2.72;;;23.20;57.00;;;;;;5032732;28;20060;-42
2021/06/08 05:16:31;;;;;;;2.03;1.92;;;23.20;56.90;;;;;;5037037;28;20029;-42
2021/06/08 05:18:57;;;;;;;2.20;2.10;;;23.20;58.10;;;;;;5045249;28;20033;-42
2021/06/08 05:21:22;;;;;;;2.38;1.90;;;23.30;57.70;;;;;;5055471;28;20016;-42
2021/06/08 05:23:50;;;;;;;2.80;2.60;;;23.20;58.10;;;;;;5046283;28;20025;-43
2021/06/08 05:26:16;;;;;;;2.08;1.98;;;23.20;58.30;;;;;;5050639;28;20029;-42
2021/06/08 05:28:41;;;;;;;2.50;2.40;;;23.20;58.30;;;;;;5033162;28;20112;-43
2021/06/08 05:31:07;;;;;;;3.15;1.95;;;23.30;58.30;;;;;;5041822;28;20046;-43
2021/06/08 05:33:33;;;;;;;1.90;1.80;;;23.30;58.20;;;;;;5063113;28;20033;-42
2021/06/08 05:35:59;;;;;;;2.17;1.98;;;23.30;58.10;;;;;;5054154;28;20037;-42
2021/06/08 05:38:37;;;;;;;2.10;2.00;;;23.30;58.10;;;;;;5054002;28;20024;-42
2021/06/08 05:41:10;;;;;;;2.60;2.00;;;23.20;58.10;;;;;;5048610;28;20064;-42
2021/06/08 05:43:37;;;;;;;3.28;2.30;;;23.20;58.30;;;;;;5052932;28;20033;-42
2021/06/08 05:46:03;;;;;;;2.55;2.35;;;23.20;58.20;;;;;;5053665;28;20040;-42
2021/06/08 05:48:29;;;;;;;2.00;1.90;;;23.10;58.20;;;;;;5052238;28;20032;-42
2021/06/08 05:50:57;;;;;;;2.95;2.10;;;23.20;58.20;;;;;;5053209;28;20029;-42
2021/06/08 05:53:23;;;;;;;2.40;2.20;;;23.20;58.10;;;;;;5051488;28;20021;-41
2021/06/08 05:55:50;;;;;;;2.10;2.00;;;23.20;58.10;;;;;;5051363;28;20033;-42
2021/06/08 05:58:15;;;;;;;2.50;2.30;;;23.10;58.30;;;;;;5053690;28;20564;-43
2021/06/08 06:00:41;;;;;;;2.22;2.13;;;23.00;59.00;;;;;;5057038;28;20045;-44
2021/06/08 06:03:07;;;;;;;1.92;1.83;;;23.20;58.20;;;;;;5056379;28;20107;-43
2021/06/08 06:05:36;;;;;;;2.00;1.90;;;23.20;58.00;;;;;;5055934;28;20056;-42
2021/06/08 06:08:01;;;;;;;1.85;1.70;;;23.30;58.10;;;;;;5052020;28;20083;-41
2021/06/08 06:10:27;;;;;;;2.17;1.67;;;23.10;58.10;;;;;;5041767;28;20483;-42
2021/06/08 06:12:52;;;;;;;2.30;2.05;;;23.20;58.30;;;;;;5055761;28;20032;-43
2021/06/08 06:15:18;;;;;;;1.92;1.83;;;23.10;58.40;;;;;;5056174;28;20059;-43
2021/06/08 06:17:44;;;;;;;2.00;1.80;;;23.00;58.50;;;;;;5052304;28;20033;-43
2021/06/08 06:20:11;;;;;;;2.00;1.90;;;23.00;58.60;;;;;;5049825;28;20033;-46
2021/06/08 06:22:36;;;;;;;2.08;1.98;;;22.90;58.80;;;;;;5056756;28;20128;-43
2021/06/08 06:25:04;;;;;;;1.60;1.50;;;22.90;58.80;;;;;;5039035;28;20519;-43
2021/06/08 06:27:39;;;;;;;1.90;1.80;;;23.10;58.70;;;;;;5050181;28;20492;-43
2021/06/08 06:30:06;;;;;;;2.10;1.88;;;23.00;58.80;;;;;;5049975;28;20028;-43
2021/06/08 06:32:31;;;;;;;2.00;1.83;;;23.00;58.80;;;;;;5056755;28;20029;-42
2021/06/08 06:34:57;;;;;;;2.08;1.60;;;23.00;58.80;;;;;;5051330;28;20519;-43
2021/06/08 06:37:26;;;;;;;3.08;1.60;;;23.00;58.70;;;;;;5052845;28;20081;-43
2021/06/08 06:39:53;;;;;;;1.77;1.63;;;23.10;58.60;;;;;;5055571;28;20106;-42
2021/06/08 06:42:18;;;;;;;2.05;1.52;;;23.10;58.40;;;;;;5047442;28;20040;-42
2021/06/08 06:44:44;;;;;;;1.60;1.50;;;23.20;58.40;;;;;;5056254;28;20028;-43
2021/06/08 06:47:10;;;;;;;3.25;2.00;;;23.10;58.40;;;;;;5052667;28;20025;-43
2021/06/08 06:49:35;;;;;;;4.05;1.60;;;23.10;58.40;;;;;;5052757;28;20062;-39
2021/06/08 06:52:05;;;;;;;1.77;1.30;;;23.10;58.30;;;;;;5058000;28;20033;-45
2021/06/08 06:54:31;;;;;;;1.42;1.40;;;23.10;58.40;;;;;;5056201;28;20167;-40
2021/06/08 06:57:01;;;;;;;2.00;1.60;;;23.10;58.50;;;;;;5051253;28;20096;-43
2021/06/08 06:59:26;;;;;;;1.77;1.60;;;23.10;58.70;;;;;;5053349;28;20555;-43
2021/06/08 07:01:52;;;;;;;2.40;1.20;;;23.00;59.30;;;;;;5052519;28;20037;-42
2021/06/08 07:04:18;;;;;;;1.48;1.38;;;23.10;58.50;;;;;;5057994;28;20502;-42
2021/06/08 07:06:45;;;;;;;1.58;1.25;;;23.20;58.10;;;;;;5054500;28;20407;-41
2021/06/08 07:09:10;;;;;;;3.72;1.58;;;23.20;58.20;;;;;;5054202;28;20028;-43
2021/06/08 07:11:36;;;;;;;1.98;1.50;;;23.20;58.40;;;;;;5053702;28;20029;-43
2021/06/08 07:14:02;;;;;;;1.63;1.52;;;23.30;58.20;;;;;;5051197;28;20577;-43
2021/06/08 07:16:28;;;;;;;2.25;1.20;;;23.40;58.30;;;;;;5039697;28;20029;-43
2021/06/08 07:18:53;;;;;;;4.65;1.55;;;23.40;58.10;;;;;;5038504;28;20033;-43
2021/06/08 07:21:20;;;;;;;1.70;1.40;;;23.40;58.20;;;;;;5036185;28;20025;-43
2021/06/08 07:23:47;;;;;;;1.70;1.60;;;23.40;58.30;;;;;;5045799;28;20063;-43
2021/06/08 07:26:15;;;;;;;1.40;1.40;;;23.20;58.30;;;;;;5052394;28;20021;-43
2021/06/08 07:28:40;;;;;;;1.38;1.27;;;23.30;58.40;;;;;;5054714;28;20124;-43
2021/06/08 07:31:06;;;;;;;1.95;1.42;;;23.20;58.30;;;;;;5034770;28;20099;-43
2021/06/08 07:33:35;;;;;;;1.45;1.38;;;23.20;58.40;;;;;;5055822;28;20029;-47
2021/06/08 07:36:18;;;;;;;1.50;1.40;;;23.10;58.60;;;;;;5052841;28;20028;-39
2021/06/08 07:38:59;;;;;;;1.73;1.30;;;23.20;58.40;;;;;;5039462;28;20466;-43
2021/06/08 07:41:44;;;;;;;1.50;1.40;;;23.30;58.40;;;;;;5052822;28;20494;-45
2021/06/08 07:44:14;;;;;;;1.35;1.13;;;23.30;58.10;;;;;;5039319;28;20021;-43
2021/06/08 07:46:40;;;;;;;1.45;1.35;;;23.20;58.60;;;;;;5054504;28;20035;-43
2021/06/08 07:49:06;;;;;;;1.13;1.02;;;23.00;59.00;;;;;;5033124;28;20033;-43
2021/06/08 07:51:31;;;;;;;1.17;1.17;;;23.00;59.10;;;;;;5038827;28;20043;-42
2021/06/08 07:53:57;;;;;;;1.20;1.20;;;23.00;59.00;;;;;;5049613;28;20025;-44
2021/06/08 07:56:23;;;;;;;1.92;1.48;;;23.00;59.10;;;;;;5037925;28;20020;-42
2021/06/08 07:58:49;;;;;;;1.30;1.20;;;23.00;59.20;;;;;;5034216;28;20035;-42
2021/06/08 08:01:15;;;;;;;1.70;1.58;;;23.30;58.40;;;;;;4713704;28;10001377;-42
2021/06/08 08:03:41;;;;;;;2.78;1.05;;;23.50;58.00;;;;;;5049835;28;20258;-42
2021/06/08 08:06:11;;;;;;;1.00;1.00;;;23.60;57.90;;;;;;5052884;28;20372;-43
2021/06/08 08:08:37;;;;;;;1.17;1.08;;;23.70;57.70;;;;;;5052710;28;20107;-42
2021/06/08 08:11:10;;;;;;;1.40;1.40;;;23.80;57.70;;;;;;5052148;28;20136;-42
2021/06/08 08:13:36;;;;;;;1.55;1.45;;;23.80;57.80;;;;;;5053675;28;20083;-42
2021/06/08 08:16:03;;;;;;;1.40;1.30;;;23.90;57.60;;;;;;5032204;28;20033;-42
2021/06/08 08:18:29;;;;;;;1.35;1.25;;;23.80;57.60;;;;;;5056690;28;20019;-42
2021/06/08 08:20:58;;;;;;;1.30;1.23;;;23.60;57.90;;;;;;5045075;28;20029;-42
2021/06/08 08:23:26;;;;;;;1.40;1.30;;;23.70;57.80;;;;;;5052745;28;20048;-42
2021/06/08 08:25:52;;;;;;;1.20;1.20;;;23.80;57.70;;;;;;5049964;28;20522;-42
2021/06/08 08:28:18;;;;;;;1.88;1.40;;;23.90;57.50;;;;;;5051534;28;20078;-43
2021/06/08 08:30:44;;;;;;;1.15;1.15;;;23.90;57.90;;;;;;5052889;28;20068;-41
2021/06/08 08:33:10;;;;;;;1.15;1.15;;;24.00;57.30;;;;;;5052960;28;20033;-42
2021/06/08 08:35:39;;;;;;;1.90;1.80;;;24.10;57.00;;;;;;5052982;28;20051;-43
2021/06/08 08:38:04;;;;;;;1.50;1.40;;;24.20;56.90;;;;;;5048994;28;20083;-42
2021/06/08 08:40:30;;;;;;;1.35;1.30;;;24.20;56.80;;;;;;5049956;28;20041;-43
2021/06/08 08:42:59;;;;;;;1.50;1.40;;;24.30;56.80;;;;;;5054260;28;20051;-42
2021/06/08 08:45:25;;;;;;;1.35;1.25;;;24.30;56.50;;;;;;5051689;28;20419;-43
2021/06/08 08:47:52;;;;;;;1.70;1.60;;;24.30;56.50;;;;;;5051333;28;20048;-38
2021/06/08 08:50:18;;;;;;;2.20;1.92;;;24.30;56.60;;;;;;5050663;28;20182;-43
2021/06/08 08:52:45;;;;;;;1.50;1.40;;;24.20;56.80;;;;;;5049792;28;20547;-36
2021/06/08 08:55:12;;;;;;;4.22;1.55;;;24.30;56.80;;;;;;5054958;28;20474;-42
2021/06/08 08:57:47;;;;;;;1.50;1.40;;;24.30;56.70;;;;;;5053507;28;20072;-43
2021/06/08 09:00:13;;;;;;;1.80;1.70;;;24.40;56.40;;;;;;5042788;28;20048;-42
2021/06/08 09:02:39;;;;;;;1.70;1.60;;;24.40;56.50;;;;;;5053425;28;20044;-42
2021/06/08 09:05:05;;;;;;;2.08;1.98;;;24.50;56.20;;;;;;5047838;28;20044;-44
2021/06/08 09:07:31;;;;;;;1.60;1.50;;;24.50;56.10;;;;;;5034383;28;20608;-42
2021/06/08 09:09:56;;;;;;;1.90;1.80;;;24.60;55.80;;;;;;5035730;28;20037;-42
2021/06/08 09:12:22;;;;;;;1.67;1.55;;;24.60;55.70;;;;;;5052730;28;20522;-42
2021/06/08 09:14:48;;;;;;;2.28;1.63;;;24.70;55.60;;;;;;5051073;28;20048;-42
2021/06/08 09:17:17;;;;;;;1.50;1.40;;;24.70;55.50;;;;;;5050716;28;20051;-42
2021/06/08 09:19:42;;;;;;;1.63;1.52;;;24.70;55.40;;;;;;5050500;28;20128;-42
2021/06/08 09:22:10;;;;;;;1.95;1.70;;;24.70;55.40;;;;;;5053706;28;20045;-42
2021/06/08 09:24:36;;;;;;;2.17;1.38;;;24.70;55.50;;;;;;5059019;28;20055;-42
2021/06/08 09:27:02;;;;;;;2.05;1.40;;;24.50;56.00;;;;;;5059402;28;20041;-42
2021/06/08 09:29:38;;;;;;;1.83;1.70;;;24.50;56.20;;;;;;5052485;28;20089;-42
2021/06/08 09:32:30;;;;;;;1.85;1.75;;;24.50;56.30;;;;;;5030530;28;20037;-41
2021/06/08 09:34:56;;;;;;;1.58;1.48;;;24.50;56.30;;;;;;5009638;28;20087;-42
2021/06/08 09:37:41;;;;;;;1.50;1.40;;;24.50;56.40;;;;;;5047657;28;20045;-42
2021/06/08 09:40:23;;;;;;;5.03;1.27;;;24.60;56.30;;;;;;5053741;28;20064;-42
2021/06/08 09:42:49;;;;;;;2.30;1.50;;;24.60;56.00;;;;;;5051885;28;20045;-42
2021/06/08 09:45:20;;;;;;;1.20;1.20;;;24.50;56.10;;;;;;5028533;28;20400;-41
2021/06/08 09:47:56;;;;;;;3.65;1.60;;;24.50;56.30;;;;;;5043279;28;20071;-42
2021/06/08 09:50:40;;;;;;;1.50;1.40;;;24.60;56.10;;;;;;5029847;28;20496;-42
2021/06/08 09:53:32;;;;;;;1.52;1.40;;;24.60;56.10;;;;;;5014787;28;20041;-43
2021/06/08 09:56:03;;;;;;;1.83;1.23;;;24.60;56.20;;;;;;5017466;28;20119;-45
2021/06/08 09:58:29;;;;;;;1.83;1.67;;;24.50;56.20;;;;;;5026932;28;20057;-42
2021/06/08 10:01:26;;;;;;;1.40;1.30;;;24.60;56.00;;;;;;5053619;28;20045;-41
2021/06/08 10:03:57;;;;;;;2.50;1.50;;;24.60;55.90;;;;;;5009983;28;20077;-44
2021/06/08 10:06:28;;;;;;;1.20;1.20;;;24.60;55.90;;;;;;4964038;28;20053;-43
2021/06/08 10:08:53;;;;;;;1.75;1.25;;;24.70;55.90;;;;;;5009722;28;20058;-42
2021/06/08 10:11:22;;;;;;;1.27;1.20;;;24.60;56.40;;;;;;5009211;28;20124;-43
2021/06/08 10:13:48;;;;;;;1.20;1.10;;;24.70;55.90;;;;;;5007046;28;20516;-43
2021/06/08 10:16:27;;;;;;;1.45;1.35;;;24.60;56.20;;;;;;4999251;28;20042;-44
2021/06/08 10:18:53;;;;;;;1.60;1.50;;;24.70;55.90;;;;;;5009887;28;20137;-43
2021/06/08 10:21:47;;;;;;;1.27;1.17;;;24.80;55.40;;;;;;5010480;28;20210;-43
2021/06/08 10:24:15;;;;;;;1.30;1.20;;;24.90;55.30;;;;;;5008091;28;20041;-44
2021/06/08 10:26:45;;;;;;;2.25;1.40;;;25.00;55.10;;;;;;5010371;28;20140;-41
2021/06/08 10:29:11;;;;;;;2.08;1.50;;;25.00;54.90;;;;;;5007010;28;20180;-43
2021/06/08 10:31:40;;;;;;;1.10;1.10;;;25.00;55.10;;;;;;4992718;28;20595;-43
2021/06/08 10:34:07;;;;;;;2.85;1.60;;;24.90;55.50;;;;;;5007553;28;20108;-44
2021/06/08 10:36:33;;;;;;;1.42;1.30;;;25.00;56.10;;;;;;5007449;28;20420;-41
2021/06/08 10:38:59;;;;;;;4.18;1.20;;;25.00;55.30;;;;;;5006338;28;20030;-41
2021/06/08 10:41:26;;;;;;;1.00;1.00;;;25.00;55.40;;;;;;5029882;28;20075;-42
2021/06/08 10:43:51;;;;;;;1.48;1.30;;;24.90;55.80;;;;;;5023022;28;20060;-41
2021/06/08 10:46:29;;;;;;;1.55;1.35;;;24.90;56.30;;;;;;5070029;28;20079;-42
2021/06/08 10:48:55;;;;;;;1.48;1.30;;;24.90;55.50;;;;;;5066170;28;20044;-41
2021/06/08 10:51:22;;;;;;;1.20;1.10;;;25.00;55.50;;;;;;5040968;28;20404;-41
2021/06/08 10:53:56;;;;;;;4.35;1.30;;;25.00;55.30;;;;;;5035647;28;20461;-42
2021/06/08 10:56:21;;;;;;;;;;;25.10;55.80;;;;;;5031678;28;20040;-43
2021/06/08 10:58:52;;;;;;;3.38;1.40;;;25.20;55.20;;;;;;5032614;28;20024;-46
2021/06/08 11:01:40;;;;;;;3.33;1.88;;;25.20;55.10;;;;;;5035891;28;20049;-46
2021/06/08 11:04:08;;;;;;;1.70;0.90;;;25.20;55.10;;;;;;5035416;28;20077;-44
2021/06/08 11:06:37;;;;;;;3.33;1.02;;;25.10;55.20;;;;;;5035341;28;20124;-41
2021/06/08 11:09:04;;;;;;;2.08;1.15;;;25.10;55.20;;;;;;5034974;28;20044;-43
2021/06/08 11:12:08;;;;;;;1.08;1.08;;;25.10;55.20;;;;;;5033332;28;20045;-43
2021/06/08 11:17:31;;;;;;;1.08;0.98;;;25.00;55.30;;;;;;4969477;28;20043;-41
2021/06/08 11:20:15;;;;;;;1.00;1.00;;;25.10;55.10;;;;;;4956907;28;20050;-41
2021/06/08 11:22:41;;;;;;;;;;;25.20;55.10;;;;;;4971186;28;20409;-43
2021/06/08 11:25:27;;;;;;;1.23;0.95;;;25.00;55.50;;;;;;4974577;28;19921;-40
2021/06/08 11:27:54;;;;;;;1.67;1.20;;;25.00;55.40;;;;;;4972896;28;20131;-40
2021/06/08 11:30:23;;;;;;;1.20;1.13;;;25.10;55.30;;;;;;4969825;28;20058;-43
2021/06/08 11:32:49;;;;;;;0.88;0.88;;;25.20;55.10;;;;;;4971665;28;20073;-43
2021/06/08 11:35:18;;;;;;;1.20;1.10;;;25.20;54.70;;;;;;4960791;28;20486;-40
2021/06/08 11:37:47;;;;;;;3.03;1.30;;;25.30;54.80;;;;;;4972462;28;20054;-45
2021/06/08 11:40:34;;;;;;;1.30;0.90;;;25.30;54.60;;;;;;4975985;28;20058;-42
2021/06/08 11:43:00;;;;;;;1.55;1.45;;;25.30;54.40;;;;;;4975792;28;20038;-42
2021/06/08 11:45:36;;;;;;;3.08;1.00;;;25.40;54.30;;;;;;5008657;28;20056;-38
2021/06/08 11:48:01;;;;;;;1.13;1.00;;;25.40;55.00;;;;;;5029410;28;20041;-42
2021/06/08 11:50:45;;;;;;;2.10;1.10;;;25.40;54.20;;;;;;5021838;28;20507;-42
2021/06/08 11:53:14;;;;;;;0.95;0.90;;;25.40;54.40;;;;;;5044327;28;20041;-42
2021/06/08 11:55:40;;;;;;;2.13;1.30;;;25.40;54.40;;;;;;5029685;28;20073;-43
2021/06/08 11:58:25;;;;;;;0.98;0.98;;;25.40;54.30;;;;;;5042351;28;20059;-40
2021/06/08 12:00:52;;;;;;;2.95;1.17;;;25.50;54.10;;;;;;5015970;28;20046;-42
2021/06/08 12:03:28;;;;;;;0.80;0.80;;;25.50;54.20;;;;;;5044733;28;20384;-41
2021/06/08 12:05:53;;;;;;;1.10;1.00;;;25.40;54.20;;;;;;5035712;28;20041;-43
2021/06/08 12:08:22;;;;;;;0.80;0.80;;;25.40;54.40;;;;;;5011687;28;20049;-43
2021/06/08 12:10:48;;;;;;;0.90;0.90;;;25.40;54.40;;;;;;5029973;28;20120;-43
2021/06/08 12:13:15;;;;;;;0.90;0.90;;;25.40;54.30;;;;;;5028437;28;20127;-40
2021/06/08 12:15:45;;;;;;;0.80;0.80;;;25.50;54.30;;;;;;5038836;28;20049;-48
2021/06/08 12:18:12;;;;;;;0.93;0.93;;;25.50;54.40;;;;;;5030843;28;20049;-41
2021/06/08 12:20:45;;;;;;;0.80;0.80;;;25.40;54.40;;;;;;5037739;28;20033;-44
2021/06/08 12:23:11;;;;;;;1.02;0.90;;;25.30;54.60;;;;;;5056576;28;20041;-41
2021/06/08 12:25:37;;;;;;;0.80;0.80;;;25.40;54.40;;;;;;5029132;28;20041;-42
2021/06/08 12:28:09;;;;;;;0.82;0.80;;;25.40;54.40;;;;;;5033503;28;20056;-41
2021/06/08 12:30:35;;;;;;;0.80;0.80;;;25.50;54.40;;;;;;5032671;28;20049;-43
2021/06/08 12:33:02;;;;;;;1.13;1.13;;;25.50;54.90;;;;;;5032092;28;20033;-41
2021/06/08 12:35:34;;;;;;;0.85;0.80;;;25.50;54.30;;;;;;5031259;28;20049;-41
2021/06/08 12:38:16;;;;;;;1.20;1.13;;;25.50;54.30;;;;;;5026781;28;20069;-43
2021/06/08 12:40:45;;;;;;;0.70;0.70;;;25.50;55.00;;;;;;5029204;28;20107;-43
2021/06/08 12:43:10;;;;;;;0.70;0.70;;;25.50;54.30;;;;;;5032540;28;20428;-43
2021/06/08 12:45:36;;;;;;;0.60;0.60;;;25.40;54.40;;;;;;5033357;28;20049;-43
2021/06/08 12:48:01;;;;;;;0.95;0.95;;;25.50;55.10;;;;;;5033160;28;20098;-39
2021/06/08 12:50:31;;;;;;;0.80;0.80;;;25.40;54.40;;;;;;5030075;28;20061;-43
2021/06/08 12:53:01;;;;;;;1.20;1.02;;;25.40;54.40;;;;;;5025236;28;20037;-38
2021/06/08 12:55:28;;;;;;;0.90;0.90;;;25.50;54.50;;;;;;5030292;28;20065;-42
2021/06/08 12:57:58;;;;;;;0.80;0.80;;;25.50;54.30;;;;;;5034648;28;20043;-43